createdAt,value
2022-12-17T00:02:30.635Z,99.90
2022-12-17T00:05:19.607Z,99.90
2022-12-17T00:08:06.214Z,99.90
2022-12-17T00:10:52.253Z,99.90
2022-12-17T00:13:40.272Z,99.90
2022-12-17T00:16:28.184Z,99.90
2022-12-17T00:19:14.313Z,99.90
2022-12-17T00:21:57.277Z,99.90
2022-12-17T00:24:43.963Z,99.90
2022-12-17T00:27:29.979Z,99.90
2022-12-17T00:30:16.614Z,99.90
2022-12-17T00:33:05.070Z,99.90
2022-12-17T00:35:51.960Z,99.90
2022-12-17T00:38:38.599Z,99.90
2022-12-17T00:41:24.770Z,99.90
2022-12-17T00:44:11.671Z,99.90
2022-12-17T00:46:57.602Z,99.90
2022-12-17T00:49:46.024Z,99.90
2022-12-17T00:52:32.228Z,99.90
2022-12-17T00:55:17.954Z,99.90
2022-12-17T00:58:04.302Z,99.90
2022-12-17T01:00:50.418Z,99.90
2022-12-17T01:03:36.583Z,99.90
2022-12-17T01:06:24.703Z,99.90
2022-12-17T01:09:10.920Z,99.90
2022-12-17T01:11:56.860Z,99.90
2022-12-17T01:14:43.801Z,99.90
2022-12-17T01:17:29.644Z,99.90
2022-12-17T01:20:17.028Z,99.90
2022-12-17T01:23:04.876Z,99.90
2022-12-17T01:25:50.884Z,99.90
2022-12-17T01:28:42.697Z,99.90
2022-12-17T01:31:34.626Z,99.90
2022-12-17T01:34:21.758Z,99.90
2022-12-17T01:37:08.187Z,99.90
2022-12-17T01:39:57.018Z,99.90
2022-12-17T01:42:43.266Z,99.90
2022-12-17T01:45:32.712Z,99.90
2022-12-17T01:48:20.826Z,99.90
2022-12-17T01:51:11.668Z,99.90
2022-12-17T01:54:03.470Z,99.90
2022-12-17T01:56:51.993Z,99.90
2022-12-17T01:59:44.532Z,99.90
2022-12-17T02:02:31.412Z,99.90
2022-12-17T02:05:17.731Z,99.90
2022-12-17T02:08:13.491Z,99.90
2022-12-17T02:11:08.290Z,99.90
2022-12-17T02:14:01.110Z,99.90
2022-12-17T02:16:55.115Z,99.90
2022-12-17T02:19:52.805Z,99.90
2022-12-17T02:22:48.675Z,99.90
2022-12-17T02:25:41.590Z,99.90
2022-12-17T02:28:29.811Z,99.90
2022-12-17T02:31:17.496Z,99.90
2022-12-17T02:34:06.379Z,99.90
2022-12-17T02:36:53.456Z,99.90
2022-12-17T02:39:40.605Z,99.90
2022-12-17T02:42:26.447Z,99.90
2022-12-17T02:45:15.877Z,99.90
2022-12-17T02:48:03.370Z,99.90
2022-12-17T02:50:49.738Z,99.90
2022-12-17T02:53:38.727Z,99.90
2022-12-17T02:56:24.805Z,99.90
2022-12-17T02:59:10.580Z,99.90
2022-12-17T03:01:59.476Z,99.90
2022-12-17T03:04:45.565Z,99.90
2022-12-17T03:07:31.816Z,99.90
2022-12-17T03:10:17.919Z,99.90
2022-12-17T03:13:03.767Z,99.90
2022-12-17T03:15:49.745Z,99.90
2022-12-17T03:18:39.795Z,99.90
2022-12-17T03:21:26.011Z,99.90
2022-12-17T03:24:11.838Z,99.90
2022-12-17T03:26:58.056Z,99.90
2022-12-17T03:29:44.284Z,99.90
2022-12-17T03:32:30.603Z,99.90
2022-12-17T03:35:18.566Z,99.90
2022-12-17T03:38:04.832Z,99.90
2022-12-17T03:40:50.584Z,99.90
2022-12-17T03:43:36.570Z,99.90
2022-12-17T03:46:22.654Z,99.90
2022-12-17T03:49:08.406Z,99.90
2022-12-17T03:51:55.440Z,99.90
2022-12-17T03:54:41.175Z,99.90
2022-12-17T03:57:27.063Z,99.90
2022-12-17T04:00:12.782Z,99.90
2022-12-17T04:02:59.234Z,99.90
2022-12-17T04:05:46.253Z,99.90
2022-12-17T04:08:34.474Z,99.90
2022-12-17T04:11:20.667Z,99.90
2022-12-17T04:14:06.431Z,99.90
2022-12-17T04:16:52.375Z,99.90
2022-12-17T04:19:38.338Z,99.90
2022-12-17T04:22:24.526Z,99.90
2022-12-17T04:25:12.398Z,99.90
2022-12-17T04:27:58.666Z,99.90
2022-12-17T04:30:44.601Z,99.90
2022-12-17T04:33:31.083Z,99.90
2022-12-17T04:36:17.128Z,99.90
2022-12-17T04:39:03.353Z,99.90
2022-12-17T04:41:50.614Z,99.90
2022-12-17T04:44:36.835Z,99.90
2022-12-17T04:47:23.495Z,99.90
2022-12-17T04:50:09.775Z,99.90
2022-12-17T04:52:56.171Z,99.90
2022-12-17T04:55:41.883Z,99.90
2022-12-17T04:58:29.713Z,99.90
2022-12-17T05:01:16.053Z,99.90
2022-12-17T05:04:02.477Z,99.90
2022-12-17T05:06:48.462Z,99.90
2022-12-17T05:09:34.940Z,99.90
2022-12-17T05:12:20.905Z,99.90
2022-12-17T05:15:53.321Z,99.90
2022-12-17T05:23:00.674Z,99.90
2022-12-17T05:26:06.130Z,99.90
2022-12-17T05:32:52.507Z,99.90
2022-12-17T05:36:15.109Z,99.90
2022-12-17T05:42:57.371Z,99.90
2022-12-17T05:45:43.972Z,99.90
2022-12-17T05:48:29.875Z,99.90
2022-12-17T05:51:17.954Z,99.90
2022-12-17T05:54:04.741Z,99.90
2022-12-17T05:56:51.398Z,99.90
2022-12-17T05:59:38.301Z,99.90
2022-12-17T06:02:24.908Z,99.90
2022-12-17T06:05:11.439Z,99.90
2022-12-17T06:07:59.507Z,99.90
2022-12-17T06:10:45.661Z,99.90
2022-12-17T06:13:31.946Z,99.90
2022-12-17T06:16:18.761Z,99.90
2022-12-17T06:19:05.046Z,99.90
2022-12-17T06:21:51.254Z,99.90
2022-12-17T06:24:42.741Z,99.90
2022-12-17T06:27:32.170Z,99.90
2022-12-17T06:30:19.304Z,99.90
2022-12-17T06:33:05.699Z,99.90
2022-12-17T06:35:51.785Z,99.90
2022-12-17T06:38:38.210Z,99.90
2022-12-17T06:41:27.360Z,99.90
2022-12-17T06:44:13.754Z,99.90
2022-12-17T06:46:59.647Z,99.90
2022-12-17T06:49:45.823Z,99.90
2022-12-17T06:52:31.908Z,99.90
2022-12-17T06:55:18.063Z,99.90
2022-12-17T06:58:06.050Z,99.90
2022-12-17T07:00:52.040Z,99.90
2022-12-17T07:03:38.829Z,99.90
2022-12-17T07:06:25.839Z,99.90
2022-12-17T07:09:12.205Z,99.90
2022-12-17T07:11:58.711Z,99.90
2022-12-17T07:14:46.372Z,99.90
2022-12-17T07:17:32.287Z,99.90
2022-12-17T07:20:18.275Z,99.90
2022-12-17T07:23:04.308Z,99.90
2022-12-17T07:25:50.808Z,99.90
2022-12-17T07:28:36.999Z,99.90
2022-12-17T07:31:25.259Z,99.90
2022-12-17T07:34:11.631Z,99.90
2022-12-17T07:36:57.656Z,99.90
2022-12-17T07:39:44.252Z,99.90
2022-12-17T07:42:32.666Z,99.90
2022-12-17T07:45:20.305Z,99.90
2022-12-17T07:48:12.946Z,99.90
2022-12-17T07:50:58.984Z,99.90
2022-12-17T07:53:45.243Z,99.90
2022-12-17T07:56:35.942Z,99.90
2022-12-17T07:59:22.147Z,99.90
2022-12-17T08:02:09.015Z,99.90
2022-12-17T08:04:58.104Z,99.90
2022-12-17T08:07:44.906Z,99.90
2022-12-17T08:10:32.102Z,99.90
2022-12-17T08:13:20.102Z,99.90
2022-12-17T08:16:06.191Z,99.90
2022-12-17T08:18:53.136Z,99.90
2022-12-17T08:21:40.830Z,99.90
2022-12-17T08:24:27.148Z,99.90
2022-12-17T08:27:13.680Z,99.90
2022-12-17T08:30:00.737Z,99.90
2022-12-17T08:32:46.942Z,99.90
2022-12-17T08:35:33.288Z,99.90
2022-12-17T08:38:25.340Z,99.90
2022-12-17T08:41:26.153Z,99.90
2022-12-17T08:44:14.840Z,99.90
2022-12-17T08:47:03.281Z,99.90
2022-12-17T08:49:49.428Z,99.90
2022-12-17T08:52:35.365Z,99.90
2022-12-17T08:55:29.369Z,99.90
2022-12-17T08:58:17.275Z,99.90
2022-12-17T09:01:05.120Z,99.90
2022-12-17T09:03:51.514Z,99.90
2022-12-17T09:06:39.433Z,99.90
2022-12-17T09:09:26.178Z,99.90
2022-12-17T09:12:14.388Z,99.90
2022-12-17T09:15:00.441Z,99.90
2022-12-17T09:17:47.417Z,99.90
2022-12-17T09:20:33.660Z,99.90
2022-12-17T09:23:20.001Z,99.90
2022-12-17T09:26:12.495Z,99.90
2022-12-17T09:29:02.597Z,99.90
2022-12-17T09:31:50.172Z,99.90
2022-12-17T09:34:39.282Z,99.90
2022-12-17T09:37:26.398Z,99.90
2022-12-17T09:40:13.951Z,99.90
2022-12-17T09:43:13.106Z,99.90
2022-12-17T09:46:10.784Z,99.90
2022-12-17T09:49:11.427Z,99.90
2022-12-17T09:51:57.918Z,99.90
2022-12-17T09:54:50.349Z,99.90
2022-12-17T09:57:40.175Z,99.90
2022-12-17T10:00:33.828Z,99.90
2022-12-17T10:03:42.129Z,99.90
2022-12-17T10:06:31.569Z,99.90
2022-12-17T10:09:19.865Z,99.90
2022-12-17T10:12:05.979Z,99.90
2022-12-17T10:14:52.278Z,99.90
2022-12-17T10:17:41.676Z,99.90
2022-12-17T10:20:43.336Z,99.90
2022-12-17T10:23:29.720Z,99.90
2022-12-17T10:26:16.649Z,99.90
2022-12-17T10:29:02.847Z,99.90
2022-12-17T10:31:50.285Z,99.90
2022-12-17T10:34:42.414Z,99.90
2022-12-17T10:37:38.347Z,99.90
2022-12-17T10:40:38.339Z,99.90
2022-12-17T10:43:41.772Z,99.90
2022-12-17T10:46:28.078Z,99.90
2022-12-17T10:49:29.027Z,99.90
2022-12-17T10:52:24.474Z,99.90
2022-12-17T10:55:19.069Z,99.90
2022-12-17T10:58:06.796Z,99.90
2022-12-17T11:00:55.995Z,99.90
2022-12-17T11:03:48.777Z,99.90
2022-12-17T11:06:42.672Z,99.90
2022-12-17T11:09:37.762Z,99.90
2022-12-17T11:12:30.823Z,99.90
2022-12-17T11:15:26.327Z,99.90
2022-12-17T11:18:13.010Z,99.90
2022-12-17T11:21:07.801Z,99.90
2022-12-17T11:23:56.539Z,99.90
2022-12-17T11:26:45.840Z,99.90
2022-12-17T11:29:33.851Z,99.90
2022-12-17T11:32:37.016Z,99.90
2022-12-17T11:35:28.599Z,99.90
2022-12-17T11:38:22.831Z,99.90
2022-12-17T11:41:14.045Z,99.90
2022-12-17T11:44:08.785Z,99.90
2022-12-17T11:47:03.337Z,99.90
2022-12-17T11:49:59.070Z,99.90
2022-12-17T11:52:55.299Z,99.90
2022-12-17T11:55:49.438Z,99.90
2022-12-17T11:58:41.612Z,99.90
2022-12-17T12:01:36.107Z,99.90
2022-12-17T12:04:36.453Z,99.90
2022-12-17T12:07:29.262Z,99.90
2022-12-17T12:10:19.012Z,99.90
2022-12-17T12:13:18.279Z,99.90
2022-12-17T12:16:15.637Z,99.90
2022-12-17T12:19:17.218Z,99.90
2022-12-17T12:26:03.105Z,99.90
2022-12-17T12:28:56.053Z,99.90
2022-12-17T12:31:50.446Z,99.90
2022-12-17T12:34:40.988Z,99.90
2022-12-17T12:37:33.265Z,99.90
2022-12-17T12:40:26.570Z,99.90
2022-12-17T12:43:20.497Z,99.90
2022-12-17T12:46:16.093Z,99.90
2022-12-17T12:49:07.451Z,99.90
2022-12-17T12:51:56.361Z,99.90
2022-12-17T12:54:46.184Z,99.90
2022-12-17T12:57:44.116Z,99.90
2022-12-17T13:01:06.579Z,99.90
2022-12-17T13:03:55.854Z,99.90
2022-12-17T13:06:43.928Z,99.90
2022-12-17T13:09:35.532Z,99.90
2022-12-17T13:12:36.315Z,99.90
2022-12-17T13:15:18.197Z,99.90
2022-12-17T13:17:59.242Z,99.90
2022-12-17T13:20:33.226Z,99.90
2022-12-17T13:23:31.440Z,99.90
2022-12-17T13:26:22.459Z,99.90
2022-12-17T13:29:13.955Z,99.90
2022-12-17T13:31:53.140Z,99.90
2022-12-17T13:34:31.067Z,99.90
2022-12-17T13:37:07.925Z,99.90
2022-12-17T13:39:43.513Z,99.90
2022-12-17T13:42:28.600Z,99.90
2022-12-17T13:44:58.907Z,99.90
2022-12-17T13:47:30.756Z,99.90
2022-12-17T13:50:33.389Z,99.90
2022-12-17T13:52:57.182Z,99.90
2022-12-17T13:55:29.710Z,99.90
2022-12-17T13:57:59.001Z,99.90
2022-12-17T14:00:30.908Z,99.90
2022-12-17T14:03:11.073Z,99.90
2022-12-17T14:05:49.241Z,99.90
2022-12-17T14:08:21.332Z,99.90
2022-12-17T14:11:19.590Z,99.90
2022-12-17T14:13:50.821Z,99.90
2022-12-17T14:16:23.513Z,99.90
2022-12-17T14:18:57.044Z,99.40
2022-12-17T14:21:30.199Z,97.50
2022-12-17T14:23:59.521Z,97.30
2022-12-17T14:26:28.455Z,97.40
2022-12-17T14:29:00.340Z,98.40
2022-12-17T14:31:33.402Z,99.70
2022-12-17T14:34:11.783Z,99.90
2022-12-17T14:36:47.288Z,99.10
2022-12-17T14:39:22.428Z,98.20
2022-12-17T14:42:12.828Z,97.20
2022-12-17T14:44:52.190Z,96.80
2022-12-17T14:47:23.210Z,96.50
2022-12-17T14:50:05.845Z,97.30
2022-12-17T14:52:46.566Z,98.60
2022-12-17T14:55:40.788Z,99.90
2022-12-17T14:58:19.398Z,99.90
2022-12-17T15:00:52.542Z,99.90
2022-12-17T15:03:29.810Z,99.90
2022-12-17T15:06:04.780Z,99.90
2022-12-17T15:08:41.769Z,99.90
2022-12-17T15:11:14.251Z,99.90
2022-12-17T15:13:44.187Z,99.90
2022-12-17T15:16:14.131Z,99.90
2022-12-17T15:18:44.825Z,99.90
2022-12-17T15:21:14.870Z,99.90
2022-12-17T15:23:46.623Z,99.90
2022-12-17T15:26:16.393Z,99.90
2022-12-17T16:53:52.968Z,99.90
2022-12-17T17:09:07.323Z,99.90
2022-12-17T17:12:00.574Z,99.90
2022-12-17T17:53:11.579Z,99.90
2022-12-17T17:56:18.976Z,99.90
2022-12-17T17:58:54.190Z,99.90
2022-12-17T18:01:36.393Z,99.90
2022-12-17T18:04:20.358Z,99.90
2022-12-17T18:09:52.120Z,99.90
2022-12-17T18:12:39.608Z,99.90
2022-12-17T18:15:14.645Z,99.90
2022-12-17T18:17:46.845Z,99.90
2022-12-17T18:21:11.553Z,99.90
2022-12-17T18:23:43.884Z,99.90
2022-12-17T18:26:17.062Z,99.90
2022-12-17T18:28:48.090Z,99.90
2022-12-17T18:31:20.327Z,99.90
2022-12-17T18:33:51.163Z,99.90
2022-12-17T18:36:23.069Z,99.90
2022-12-17T18:38:57.872Z,99.90
2022-12-17T18:41:51.828Z,99.90
2022-12-17T18:44:21.739Z,99.90
2022-12-17T18:46:51.394Z,99.90
2022-12-17T18:49:22.523Z,99.90
2022-12-17T18:51:53.533Z,99.90
2022-12-17T18:54:24.820Z,99.90
2022-12-17T18:57:01.878Z,99.90
2022-12-17T18:59:32.595Z,99.90
2022-12-17T19:02:01.798Z,99.90
2022-12-17T19:04:30.906Z,99.90
2022-12-17T19:06:59.856Z,99.90
2022-12-17T19:09:31.565Z,99.90
2022-12-17T19:12:02.202Z,99.90
2022-12-17T19:14:30.945Z,99.90
2022-12-17T19:17:03.021Z,99.90
2022-12-17T19:19:32.262Z,99.90
2022-12-17T19:22:03.776Z,99.90
2022-12-17T19:24:32.752Z,99.90
2022-12-17T19:27:03.456Z,99.90
2022-12-17T19:29:32.650Z,99.90
2022-12-17T19:32:02.931Z,99.90
2022-12-17T19:34:32.558Z,99.90
2022-12-17T19:37:01.178Z,99.90
2022-12-17T19:39:29.770Z,99.90
2022-12-17T19:41:58.534Z,99.90
2022-12-17T19:44:28.716Z,99.90
2022-12-17T19:46:59.073Z,99.90
2022-12-17T19:49:28.209Z,99.90
2022-12-17T19:51:57.159Z,99.90
2022-12-17T19:54:26.436Z,99.90
2022-12-17T19:56:55.934Z,99.90
2022-12-17T19:59:25.145Z,99.90
2022-12-17T20:01:55.705Z,99.90
2022-12-17T20:04:25.002Z,99.90
2022-12-17T20:06:53.948Z,99.90
2022-12-17T20:09:23.277Z,99.90
2022-12-17T20:11:52.146Z,99.90
2022-12-17T20:14:23.013Z,99.90
2022-12-17T20:16:53.885Z,99.90
2022-12-17T20:19:25.954Z,99.90
2022-12-17T20:21:55.740Z,99.90
2022-12-17T20:24:31.217Z,99.90
2022-12-17T20:27:01.461Z,99.90
2022-12-17T20:29:30.200Z,99.90
2022-12-17T20:32:05.715Z,99.90
2022-12-17T20:34:36.619Z,99.90
2022-12-17T20:37:05.490Z,99.90
2022-12-17T20:39:34.994Z,99.90
2022-12-17T20:42:04.337Z,99.90
2022-12-17T20:44:34.223Z,99.90
2022-12-17T20:47:03.563Z,99.90
2022-12-17T20:49:32.829Z,99.90
2022-12-17T20:52:04.550Z,99.90
2022-12-17T20:54:33.665Z,99.90
2022-12-17T20:57:02.794Z,99.90
2022-12-17T20:59:32.540Z,99.90
2022-12-17T21:02:01.572Z,99.90
2022-12-17T21:04:30.709Z,99.90
2022-12-17T21:06:59.355Z,99.90
2022-12-17T21:09:29.938Z,99.90
2022-12-17T21:11:59.949Z,99.90
2022-12-17T21:14:35.319Z,99.90
2022-12-17T21:17:05.357Z,99.90
2022-12-17T21:19:34.798Z,99.90
2022-12-17T21:22:04.611Z,99.90
2022-12-17T21:24:35.422Z,99.90
2022-12-17T21:27:07.185Z,99.90
2022-12-17T21:29:38.526Z,99.90
2022-12-17T21:32:07.605Z,99.90
2022-12-17T21:34:36.547Z,99.90
2022-12-17T21:37:05.382Z,99.90
2022-12-17T21:39:41.587Z,99.90
2022-12-17T21:42:27.782Z,99.90
2022-12-17T21:44:57.005Z,99.90
2022-12-17T21:47:27.065Z,99.90
2022-12-17T21:49:55.922Z,99.90
2022-12-17T21:52:24.638Z,99.90
2022-12-17T21:54:54.556Z,99.90
2022-12-17T21:57:23.394Z,99.90
2022-12-17T21:59:52.099Z,99.90
2022-12-17T22:02:22.454Z,99.90
2022-12-17T22:04:51.901Z,99.90
2022-12-17T22:07:23.732Z,99.90
2022-12-17T22:10:08.166Z,99.90
2022-12-17T22:13:05.812Z,99.90
2022-12-17T22:15:43.162Z,99.90
2022-12-17T22:18:16.918Z,99.90
2022-12-17T22:20:46.313Z,99.90
2022-12-17T22:23:18.099Z,99.90
2022-12-17T22:25:48.807Z,99.90
2022-12-17T22:28:20.671Z,99.90
2022-12-17T22:31:07.316Z,99.90
2022-12-17T22:33:39.711Z,99.90
2022-12-17T22:39:40.152Z,99.90
2022-12-17T22:44:31.564Z,99.90
2022-12-17T22:44:37.448Z,99.90
2022-12-17T22:46:29.532Z,99.90
2022-12-17T22:49:31.087Z,99.90
2022-12-17T22:52:23.236Z,99.90
2022-12-17T22:55:51.782Z,99.90
2022-12-17T22:59:10.924Z,99.90
2022-12-17T23:01:49.543Z,99.90
2022-12-17T23:05:05.508Z,99.90
2022-12-17T23:07:42.160Z,99.90
2022-12-17T23:10:11.762Z,99.90
2022-12-17T23:12:57.815Z,99.90
2022-12-17T23:15:31.760Z,99.90
2022-12-17T23:18:02.682Z,99.90
2022-12-17T23:20:34.129Z,99.90
2022-12-17T23:23:03.311Z,99.90
2022-12-17T23:25:33.600Z,99.90
2022-12-17T23:28:03.111Z,99.90
2022-12-17T23:30:33.812Z,99.90
2022-12-17T23:33:02.787Z,99.90
2022-12-17T23:35:33.227Z,99.90
2022-12-17T23:38:05.389Z,99.90
2022-12-17T23:40:35.536Z,99.90
2022-12-17T23:43:07.875Z,99.90
2022-12-17T23:45:40.359Z,99.90
2022-12-17T23:48:12.240Z,99.90
2022-12-17T23:50:41.663Z,99.90
2022-12-17T23:53:10.361Z,99.90
2022-12-17T23:55:39.196Z,99.90
2022-12-17T23:58:07.850Z,99.90
